sensor_id;sensor_type;location;lat;lon;timestamp;pressure;altitude;pressure_sealevel;temperature;humidity
11223;BME280;5668;52.012;8.724;2023-12-20T00:00:02;99817.31;;;9.10;100.00
11223;BME280;5668;52.012;8.724;2023-12-20T00:02:30;99827.00;;;9.08;100.00
11223;BME280;5668;52.012;8.724;2023-12-20T00:04:57;99821.09;;;9.06;100.00
11223;BME280;5668;52.012;8.724;2023-12-20T00:07:25;99827.22;;;9.05;100.00
11223;BME280;5668;52.012;8.724;2023-12-20T00:09:53;99828.03;;;9.05;100.00
11223;BME280;5668;52.012;8.724;2023-12-20T00:12:20;99822.94;;;9.04;100.00
11223;BME280;5668;52.012;8.724;2023-12-20T00:14:47;99830.03;;;9.02;100.00
11223;BME280;5668;52.012;8.724;2023-12-20T00:17:14;99826.81;;;8.98;100.00
11223;BME280;5668;52.012;8.724;2023-12-20T00:19:41;99826.91;;;8.97;100.00
11223;BME280;5668;52.012;8.724;2023-12-20T00:22:08;99825.25;;;8.96;100.00
11223;BME280;5668;52.012;8.724;2023-12-20T00:24:37;99830.69;;;8.92;100.00
11223;BME280;5668;52.012;8.724;2023-12-20T00:27:04;99838.56;;;8.91;100.00
11223;BME280;5668;52.012;8.724;2023-12-20T00:29:32;99848.28;;;8.87;100.00
11223;BME280;5668;52.012;8.724;2023-12-20T00:31:59;99844.28;;;8.83;100.00
11223;BME280;5668;52.012;8.724;2023-12-20T00:34:26;99857.44;;;8.80;100.00
11223;BME280;5668;52.012;8.724;2023-12-20T00:36:53;99861.78;;;8.80;100.00
11223;BME280;5668;52.012;8.724;2023-12-20T00:39:20;99857.66;;;8.77;100.00
11223;BME280;5668;52.012;8.724;2023-12-20T00:41:49;99856.94;;;8.75;100.00
11223;BME280;5668;52.012;8.724;2023-12-20T00:44:16;99848.97;;;8.78;100.00
11223;BME280;5668;52.012;8.724;2023-12-20T00:46:43;99847.31;;;8.77;100.00
11223;BME280;5668;52.012;8.724;2023-12-20T00:49:11;99849.78;;;8.79;100.00
11223;BME280;5668;52.012;8.724;2023-12-20T00:51:38;99850.63;;;8.79;100.00
11223;BME280;5668;52.012;8.724;2023-12-20T00:54:05;99847.31;;;8.77;100.00
11223;BME280;5668;52.012;8.724;2023-12-20T00:56:31;99852.69;;;8.74;100.00
11223;BME280;5668;52.012;8.724;2023-12-20T00:59:00;99842.56;;;8.71;100.00
11223;BME280;5668;52.012;8.724;2023-12-20T01:01:27;99854.78;;;8.69;100.00
11223;BME280;5668;52.012;8.724;2023-12-20T01:03:54;99855.72;;;8.68;100.00
11223;BME280;5668;52.012;8.724;2023-12-20T01:06:21;99854.78;;;8.69;100.00
11223;BME280;5668;52.012;8.724;2023-12-20T01:08:49;99853.13;;;8.68;100.00
11223;BME280;5668;52.012;8.724;2023-12-20T01:11:16;99850.53;;;8.68;100.00
11223;BME280;5668;52.012;8.724;2023-12-20T01:13:43;99857.47;;;8.68;100.00
11223;BME280;5668;52.012;8.724;2023-12-20T01:16:12;99855.81;;;8.67;100.00
11223;BME280;5668;52.012;8.724;2023-12-20T01:18:39;99849.78;;;8.66;100.00
11223;BME280;5668;52.012;8.724;2023-12-20T01:21:06;99849.78;;;8.66;100.00
11223;BME280;5668;52.012;8.724;2023-12-20T01:23:33;99859.47;;;8.64;100.00
11223;BME280;5668;52.012;8.724;2023-12-20T01:26:00;99855.91;;;8.65;100.00
11223;BME280;5668;52.012;8.724;2023-12-20T01:28:28;99852.50;;;8.65;100.00
11223;BME280;5668;52.012;8.724;2023-12-20T01:30:55;99862.03;;;8.64;100.00
11223;BME280;5668;52.012;8.724;2023-12-20T01:33:24;99860.38;;;8.63;100.00
11223;BME280;5668;52.012;8.724;2023-12-20T01:35:51;99869.09;;;8.62;100.00
11223;BME280;5668;52.012;8.724;2023-12-20T01:38:18;99870.75;;;8.63;100.00
11223;BME280;5668;52.012;8.724;2023-12-20T01:40:46;99864.84;;;8.61;100.00
11223;BME280;5668;52.012;8.724;2023-12-20T01:43:13;99865.56;;;8.63;100.00
11223;BME280;5668;52.012;8.724;2023-12-20T01:45:41;99865.56;;;8.63;100.00
11223;BME280;5668;52.012;8.724;2023-12-20T01:48:08;99870.03;;;8.61;100.00
11223;BME280;5668;52.012;8.724;2023-12-20T01:50:38;99870.94;;;8.60;100.00
11223;BME280;5668;52.012;8.724;2023-12-20T01:53:07;99876.97;;;8.61;100.00
11223;BME280;5668;52.012;8.724;2023-12-20T01:55:36;99878.72;;;8.60;100.00
11223;BME280;5668;52.012;8.724;2023-12-20T01:58:05;99874.69;;;8.56;100.00
11223;BME280;5668;52.012;8.724;2023-12-20T02:00:33;99874.06;;;8.52;100.00
11223;BME280;5668;52.012;8.724;2023-12-20T02:03:01;99863.69;;;8.52;100.00
11223;BME280;5668;52.012;8.724;2023-12-20T02:05:30;99870.66;;;8.52;100.00
11223;BME280;5668;52.012;8.724;2023-12-20T02:07:58;99869.91;;;8.50;100.00
11223;BME280;5668;52.012;8.724;2023-12-20T02:10:26;99857.91;;;8.49;100.00
11223;BME280;5668;52.012;8.724;2023-12-20T02:12:54;99855.34;;;8.49;100.00
11223;BME280;5668;52.012;8.724;2023-12-20T02:15:21;99854.38;;;8.50;100.00
11223;BME280;5668;52.012;8.724;2023-12-20T02:17:48;99843.19;;;8.49;100.00
11223;BME280;5668;52.012;8.724;2023-12-20T02:20:16;99854.38;;;8.50;100.00
11223;BME280;5668;52.012;8.724;2023-12-20T02:22:45;99851.09;;;8.48;100.00
11223;BME280;5668;52.012;8.724;2023-12-20T02:25:12;99848.69;;;8.45;100.00
11223;BME280;5668;52.012;8.724;2023-12-20T02:27:40;99844.25;;;8.47;100.00
11223;BME280;5668;52.012;8.724;2023-12-20T02:30:08;99844.25;;;8.47;100.00
11223;BME280;5668;52.012;8.724;2023-12-20T02:32:35;99843.50;;;8.45;100.00
11223;BME280;5668;52.012;8.724;2023-12-20T02:35:02;99850.44;;;8.44;100.00
11223;BME280;5668;52.012;8.724;2023-12-20T02:37:30;99858.31;;;8.43;100.00
11223;BME280;5668;52.012;8.724;2023-12-20T02:39:58;99863.50;;;8.43;100.00
11223;BME280;5668;52.012;8.724;2023-12-20T02:42:25;99861.88;;;8.42;100.00
11223;BME280;5668;52.012;8.724;2023-12-20T02:44:52;99857.72;;;8.39;100.00
11223;BME280;5668;52.012;8.724;2023-12-20T02:47:20;99850.88;;;8.38;100.00
11223;BME280;5668;52.012;8.724;2023-12-20T02:49:47;99851.72;;;8.39;100.00
11223;BME280;5668;52.012;8.724;2023-12-20T02:52:15;99843.22;;;8.37;100.00
11223;BME280;5668;52.012;8.724;2023-12-20T02:54:42;99843.22;;;8.37;100.00
11223;BME280;5668;52.012;8.724;2023-12-20T02:57:10;99849.22;;;8.37;100.00
11223;BME280;5668;52.012;8.724;2023-12-20T02:59:38;99850.03;;;8.38;100.00
11223;BME280;5668;52.012;8.724;2023-12-20T03:02:05;99842.38;;;8.36;100.00
11223;BME280;5668;52.012;8.724;2023-12-20T03:04:32;99837.19;;;8.36;100.00
11223;BME280;5668;52.012;8.724;2023-12-20T03:06:59;99836.28;;;8.37;100.00
11223;BME280;5668;52.012;8.724;2023-12-20T03:09:27;99827.69;;;8.37;100.00
11223;BME280;5668;52.012;8.724;2023-12-20T03:11:54;99838.13;;;8.35;100.00
11223;BME280;5668;52.012;8.724;2023-12-20T03:14:22;99833.91;;;8.34;100.00
11223;BME280;5668;52.012;8.724;2023-12-20T03:16:50;99837.53;;;8.32;100.00
11223;BME280;5668;52.012;8.724;2023-12-20T03:19:17;99830.69;;;8.31;100.00
11223;BME280;5668;52.012;8.724;2023-12-20T03:21:45;99831.41;;;8.33;100.00
11223;BME280;5668;52.012;8.724;2023-12-20T03:24:13;99834.94;;;8.32;100.00
11223;BME280;5668;52.012;8.724;2023-12-20T03:26:40;99829.81;;;8.30;100.00
11223;BME280;5668;52.012;8.724;2023-12-20T03:29:07;99828.09;;;8.31;100.00
11223;BME280;5668;52.012;8.724;2023-12-20T03:31:36;99840.19;;;8.30;100.00
11223;BME280;5668;52.012;8.724;2023-12-20T03:34:03;99837.59;;;8.30;100.00
11223;BME280;5668;52.012;8.724;2023-12-20T03:36:30;99831.81;;;8.27;100.00
11223;BME280;5668;52.012;8.724;2023-12-20T03:38:57;99826.00;;;8.23;100.00
11223;BME280;5668;52.012;8.724;2023-12-20T03:41:25;99816.47;;;8.24;100.00
11223;BME280;5668;52.012;8.724;2023-12-20T03:43:52;99831.38;;;8.20;100.00
11223;BME280;5668;52.012;8.724;2023-12-20T03:46:19;99834.09;;;8.19;100.00
11223;BME280;5668;52.012;8.724;2023-12-20T03:48:48;99838.44;;;8.18;100.00
11223;BME280;5668;52.012;8.724;2023-12-20T03:51:15;99828.91;;;8.19;100.00
11223;BME280;5668;52.012;8.724;2023-12-20T03:53:42;99817.72;;;8.18;100.00
11223;BME280;5668;52.012;8.724;2023-12-20T03:56:09;99814.22;;;8.19;100.00
11223;BME280;5668;52.012;8.724;2023-12-20T03:58:37;99821.25;;;8.17;100.00
11223;BME280;5668;52.012;8.724;2023-12-20T04:01:08;99817.94;;;8.15;100.00
11223;BME280;5668;52.012;8.724;2023-12-20T04:03:36;99818.75;;;8.15;100.00
11223;BME280;5668;52.012;8.724;2023-12-20T04:06:04;99804.38;;;8.11;100.00
11223;BME280;5668;52.012;8.724;2023-12-20T04:08:32;99816.38;;;8.12;100.00
11223;BME280;5668;52.012;8.724;2023-12-20T04:10:59;99825.78;;;8.13;100.00
11223;BME280;5668;52.012;8.724;2023-12-20T04:13:26;99811.09;;;8.14;100.00
11223;BME280;5668;52.012;8.724;2023-12-20T04:15:53;99818.94;;;8.12;100.00
11223;BME280;5668;52.012;8.724;2023-12-20T04:18:21;99815.44;;;8.13;100.00
11223;BME280;5668;52.012;8.724;2023-12-20T04:20:48;99809.66;;;8.10;100.00
11223;BME280;5668;52.012;8.724;2023-12-20T04:23:16;99800.31;;;8.07;100.00
11223;BME280;5668;52.012;8.724;2023-12-20T04:25:44;99803.66;;;8.09;100.00
11223;BME280;5668;52.012;8.724;2023-12-20T04:28:11;99802.72;;;8.10;100.00
11223;BME280;5668;52.012;8.724;2023-12-20T04:30:38;99801.06;;;8.09;100.00
11223;BME280;5668;52.012;8.724;2023-12-20T04:33:05;99809.84;;;8.07;100.00
11223;BME280;5668;52.012;8.724;2023-12-20T04:35:32;99802.91;;;8.07;100.00
11223;BME280;5668;52.012;8.724;2023-12-20T04:38:00;99807.16;;;8.08;100.00
11223;BME280;5668;52.012;8.724;2023-12-20T04:40:28;99814.09;;;8.08;100.00
11223;BME280;5668;52.012;8.724;2023-12-20T04:42:55;99807.59;;;8.02;100.00
11223;BME280;5668;52.012;8.724;2023-12-20T04:45:23;99795.56;;;8.01;100.00
11223;BME280;5668;52.012;8.724;2023-12-20T04:47:51;99805.69;;;8.04;100.00
11223;BME280;5668;52.012;8.724;2023-12-20T04:50:18;99798.16;;;8.01;100.00
11223;BME280;5668;52.012;8.724;2023-12-20T04:52:47;99792.06;;;8.02;100.00
11223;BME280;5668;52.012;8.724;2023-12-20T04:55:14;99795.34;;;8.04;100.00
11223;BME280;5668;52.012;8.724;2023-12-20T04:57:43;99805.59;;;8.06;100.00
11223;BME280;5668;52.012;8.724;2023-12-20T05:00:11;99807.16;;;8.08;100.00
11223;BME280;5668;52.012;8.724;2023-12-20T05:02:40;99804.56;;;8.08;100.00
11223;BME280;5668;52.012;8.724;2023-12-20T05:05:08;99802.19;;;8.05;100.00
11223;BME280;5668;52.012;8.724;2023-12-20T05:07:35;99793.72;;;8.03;100.00
11223;BME280;5668;52.012;8.724;2023-12-20T05:10:03;99793.72;;;8.03;100.00
11223;BME280;5668;52.012;8.724;2023-12-20T05:12:31;99789.47;;;8.02;100.00
11223;BME280;5668;52.012;8.724;2023-12-20T05:15:00;99791.13;;;8.03;100.00
11223;BME280;5668;52.012;8.724;2023-12-20T05:17:27;99790.31;;;8.03;100.00
11223;BME280;5668;52.012;8.724;2023-12-20T05:19:55;99785.31;;;8.00;100.00
11223;BME280;5668;52.012;8.724;2023-12-20T05:22:22;99787.09;;;7.99;100.00
11223;BME280;5668;52.012;8.724;2023-12-20T05:24:49;99785.22;;;8.01;100.00
11223;BME280;5668;52.012;8.724;2023-12-20T05:27:16;99790.41;;;8.01;100.00
11223;BME280;5668;52.012;8.724;2023-12-20T05:29:43;99779.31;;;7.99;100.00
11223;BME280;5668;52.012;8.724;2023-12-20T05:32:12;99780.06;;;8.01;100.00
11223;BME280;5668;52.012;8.724;2023-12-20T05:34:39;99778.41;;;8.00;100.00
11223;BME280;5668;52.012;8.724;2023-12-20T05:37:06;99780.78;;;8.03;100.00
11223;BME280;5668;52.012;8.724;2023-12-20T05:39:33;99780.78;;;8.03;100.00
11223;BME280;5668;52.012;8.724;2023-12-20T05:42:01;99776.53;;;8.02;100.00
11223;BME280;5668;52.012;8.724;2023-12-20T05:44:28;99772.38;;;8.00;100.00
11223;BME280;5668;52.012;8.724;2023-12-20T05:46:55;99776.81;;;7.98;100.00
11223;BME280;5668;52.012;8.724;2023-12-20T05:49:24;99785.41;;;7.98;100.00
11223;BME280;5668;52.012;8.724;2023-12-20T05:51:51;99787.09;;;7.99;100.00
11223;BME280;5668;52.012;8.724;2023-12-20T05:54:18;99795.78;;;7.98;100.00
11223;BME280;5668;52.012;8.724;2023-12-20T05:56:45;99799.28;;;7.97;100.00
11223;BME280;5668;52.012;8.724;2023-12-20T05:59:12;99793.50;;;7.94;100.00
11223;BME280;5668;52.012;8.724;2023-12-20T06:01:39;99797.03;;;7.93;100.00
11223;BME280;5668;52.012;8.724;2023-12-20T06:04:07;99803.03;;;7.93;100.00
11223;BME280;5668;52.012;8.724;2023-12-20T06:06:41;99802.09;;;7.94;100.00
11223;BME280;5668;52.012;8.724;2023-12-20T06:09:08;99801.38;;;7.92;100.00
11223;BME280;5668;52.012;8.724;2023-12-20T06:11:36;99796.91;;;7.94;100.00
11223;BME280;5668;52.012;8.724;2023-12-20T06:14:03;99796.00;;;7.95;100.00
11223;BME280;5668;52.012;8.724;2023-12-20T06:16:30;99800.94;;;7.98;100.00
11223;BME280;5668;52.012;8.724;2023-12-20T06:18:58;99797.66;;;7.96;100.00
11223;BME280;5668;52.012;8.724;2023-12-20T06:21:25;99799.28;;;7.97;100.00
11223;BME280;5668;52.012;8.724;2023-12-20T06:23:53;99803.53;;;7.98;100.00
11223;BME280;5668;52.012;8.724;2023-12-20T06:26:21;99792.47;;;7.96;100.00
11223;BME280;5668;52.012;8.724;2023-12-20T06:28:48;99801.38;;;7.92;100.00
11223;BME280;5668;52.012;8.724;2023-12-20T06:31:15;99798.78;;;7.92;100.00
11223;BME280;5668;52.012;8.724;2023-12-20T06:33:43;99802.09;;;7.94;100.00
11223;BME280;5668;52.012;8.724;2023-12-20T06:36:12;99802.09;;;7.94;100.00
11223;BME280;5668;52.012;8.724;2023-12-20T06:38:40;99802.00;;;7.96;100.00
11223;BME280;5668;52.012;8.724;2023-12-20T06:41:12;99792.47;;;7.96;100.00
11223;BME280;5668;52.012;8.724;2023-12-20T06:43:40;99808.00;;;7.96;100.00
11223;BME280;5668;52.012;8.724;2023-12-20T06:46:07;99798.59;;;7.95;100.00
11223;BME280;5668;52.012;8.724;2023-12-20T06:48:34;99787.19;;;7.98;100.00
11223;BME280;5668;52.012;8.724;2023-12-20T06:51:02;99781.41;;;7.94;100.00
11223;BME280;5668;52.012;8.724;2023-12-20T06:53:29;99780.47;;;7.95;100.00
11223;BME280;5668;52.012;8.724;2023-12-20T06:55:56;99782.31;;;7.93;100.00
11223;BME280;5668;52.012;8.724;2023-12-20T06:58:25;99791.00;;;7.92;100.00
11223;BME280;5668;52.012;8.724;2023-12-20T07:00:52;99787.50;;;7.93;100.00
11223;BME280;5668;52.012;8.724;2023-12-20T07:03:19;99779.66;;;7.95;100.00
11223;BME280;5668;52.012;8.724;2023-12-20T07:05:46;99775.19;;;7.97;100.00
11223;BME280;5668;52.012;8.724;2023-12-20T07:08:14;99789.75;;;7.98;100.00
11223;BME280;5668;52.012;8.724;2023-12-20T07:10:41;99787.91;;;8.00;100.00
11223;BME280;5668;52.012;8.724;2023-12-20T07:13:08;99777.66;;;7.98;100.00
11223;BME280;5668;52.012;8.724;2023-12-20T07:15:37;99790.81;;;7.95;100.00
11223;BME280;5668;52.012;8.724;2023-12-20T07:18:04;99791.66;;;7.96;100.00
11223;BME280;5668;52.012;8.724;2023-12-20T07:20:32;99792.78;;;7.92;100.00
11223;BME280;5668;52.012;8.724;2023-12-20T07:23:00;99780.56;;;7.94;100.00
11223;BME280;5668;52.012;8.724;2023-12-20T07:25:27;99776.97;;;7.96;100.00
11223;BME280;5668;52.012;8.724;2023-12-20T07:27:54;99788.44;;;7.92;100.00
11223;BME280;5668;52.012;8.724;2023-12-20T07:30:21;99790.19;;;7.92;100.00
11223;BME280;5668;52.012;8.724;2023-12-20T07:32:50;99777.16;;;7.93;100.00
11223;BME280;5668;52.012;8.724;2023-12-20T07:35:18;99770.22;;;7.94;100.00
11223;BME280;5668;52.012;8.724;2023-12-20T07:37:45;99768.25;;;7.97;100.00
11223;BME280;5668;52.012;8.724;2023-12-20T07:40:13;99769.91;;;7.98;100.00
11223;BME280;5668;52.012;8.724;2023-12-20T07:42:42;99785.66;;;7.95;100.00
11223;BME280;5668;52.012;8.724;2023-12-20T07:45:10;99776.97;;;7.96;100.00
11223;BME280;5668;52.012;8.724;2023-12-20T07:47:37;99776.97;;;7.96;100.00
11223;BME280;5668;52.012;8.724;2023-12-20T07:50:07;99775.19;;;7.97;100.00
11223;BME280;5668;52.012;8.724;2023-12-20T07:52:36;99775.31;;;7.95;100.00
11223;BME280;5668;52.012;8.724;2023-12-20T07:55:03;99777.16;;;7.93;100.00
11223;BME280;5668;52.012;8.724;2023-12-20T07:57:31;99778.81;;;7.94;100.00
11223;BME280;5668;52.012;8.724;2023-12-20T07:59:58;99782.31;;;7.93;100.00
11223;BME280;5668;52.012;8.724;2023-12-20T08:02:25;99779.84;;;7.92;100.00
11223;BME280;5668;52.012;8.724;2023-12-20T08:04:52;99770.31;;;7.92;100.00
11223;BME280;5668;52.012;8.724;2023-12-20T08:07:21;99780.88;;;7.89;100.00
11223;BME280;5668;52.012;8.724;2023-12-20T08:09:48;99771.25;;;7.91;100.00
11223;BME280;5668;52.012;8.724;2023-12-20T08:12:15;99770.31;;;7.92;100.00
11223;BME280;5668;52.012;8.724;2023-12-20T08:14:43;99756.25;;;7.96;100.00
11223;BME280;5668;52.012;8.724;2023-12-20T08:17:10;99760.69;;;7.94;100.00
11223;BME280;5668;52.012;8.724;2023-12-20T08:19:38;99755.63;;;7.93;100.00
11223;BME280;5668;52.012;8.724;2023-12-20T08:22:05;99762.56;;;7.92;100.00
11223;BME280;5668;52.012;8.724;2023-12-20T08:24:34;99763.47;;;7.91;100.00
11223;BME280;5668;52.012;8.724;2023-12-20T08:27:01;99773.84;;;7.91;100.00
11223;BME280;5668;52.012;8.724;2023-12-20T08:29:28;99755.44;;;7.96;100.00
11223;BME280;5668;52.012;8.724;2023-12-20T08:31:55;99770.94;;;7.96;100.00
11223;BME280;5668;52.012;8.724;2023-12-20T08:34:23;99766.72;;;7.95;100.00
11223;BME280;5668;52.012;8.724;2023-12-20T08:36:50;99769.50;;;7.92;100.00
11223;BME280;5668;52.012;8.724;2023-12-20T08:39:18;99762.25;;;7.97;100.00
11223;BME280;5668;52.012;8.724;2023-12-20T08:41:46;99738.75;;;8.00;100.00
11223;BME280;5668;52.012;8.724;2023-12-20T08:44:14;99740.75;;;7.96;100.00
11223;BME280;5668;52.012;8.724;2023-12-20T08:46:41;99752.94;;;7.94;100.00
11223;BME280;5668;52.012;8.724;2023-12-20T08:49:08;99726.97;;;7.96;100.00
11223;BME280;5668;52.012;8.724;2023-12-20T08:51:36;99745.78;;;7.98;100.00
11223;BME280;5668;52.012;8.724;2023-12-20T08:54:06;99757.88;;;7.97;100.00
11223;BME280;5668;52.012;8.724;2023-12-20T08:56:34;99752.72;;;7.97;100.00
11223;BME280;5668;52.012;8.724;2023-12-20T08:59:03;99746.63;;;7.98;100.00
11223;BME280;5668;52.012;8.724;2023-12-20T09:01:30;99745.59;;;8.01;100.00
11223;BME280;5668;52.012;8.724;2023-12-20T09:03:57;99750.03;;;7.99;100.00
11223;BME280;5668;52.012;8.724;2023-12-20T09:06:24;99745.69;;;7.99;100.00
11223;BME280;5668;52.012;8.724;2023-12-20T09:08:52;99740.31;;;8.02;100.00
11223;BME280;5668;52.012;8.724;2023-12-20T09:11:19;99736.06;;;8.01;100.00
11223;BME280;5668;52.012;8.724;2023-12-20T09:13:46;99731.63;;;8.03;100.00
11223;BME280;5668;52.012;8.724;2023-12-20T09:16:15;99721.28;;;8.03;100.00
11223;BME280;5668;52.012;8.724;2023-12-20T09:18:42;99723.72;;;8.05;100.00
11223;BME280;5668;52.012;8.724;2023-12-20T09:21:09;99718.56;;;8.05;100.00
11223;BME280;5668;52.012;8.724;2023-12-20T09:23:36;99709.88;;;8.06;100.00
11223;BME280;5668;52.012;8.724;2023-12-20T09:26:04;99711.63;;;8.05;100.00
11223;BME280;5668;52.012;8.724;2023-12-20T09:28:32;99704.78;;;8.04;100.00
11223;BME280;5668;52.012;8.724;2023-12-20T09:31:03;99694.25;;;8.07;100.00
11223;BME280;5668;52.012;8.724;2023-12-20T09:33:32;99702.00;;;8.07;100.00
11223;BME280;5668;52.012;8.724;2023-12-20T09:35:59;99697.66;;;8.08;100.00
11223;BME280;5668;52.012;8.724;2023-12-20T09:38:27;99702.81;;;8.08;100.00
11223;BME280;5668;52.012;8.724;2023-12-20T09:40:54;99694.25;;;8.07;100.00
11223;BME280;5668;52.012;8.724;2023-12-20T09:43:24;99694.25;;;8.07;100.00
11223;BME280;5668;52.012;8.724;2023-12-20T09:45:54;99685.66;;;8.07;100.00
11223;BME280;5668;52.012;8.724;2023-12-20T09:48:27;99681.94;;;8.11;100.00
11223;BME280;5668;52.012;8.724;2023-12-20T09:50:56;99677.78;;;8.08;100.00
11223;BME280;5668;52.012;8.724;2023-12-20T09:53:25;99677.59;;;8.11;100.00
11223;BME280;5668;52.012;8.724;2023-12-20T09:55:57;99680.16;;;8.11;100.00
11223;BME280;5668;52.012;8.724;2023-12-20T09:58:25;99682.84;;;8.10;100.00
11223;BME280;5668;52.012;8.724;2023-12-20T10:00:53;99684.63;;;8.09;100.00
11223;BME280;5668;52.012;8.724;2023-12-20T10:03:25;99687.94;;;8.11;100.00
11223;BME280;5668;52.012;8.724;2023-12-20T10:05:56;99686.28;;;8.10;100.00
11223;BME280;5668;52.012;8.724;2023-12-20T10:08:24;99691.44;;;8.10;100.00
11223;BME280;5668;52.012;8.724;2023-12-20T10:10:52;99689.56;;;8.12;100.00
11223;BME280;5668;52.012;8.724;2023-12-20T10:13:19;99689.56;;;8.12;100.00
11223;BME280;5668;52.012;8.724;2023-12-20T10:15:46;99685.34;;;8.11;100.00
11223;BME280;5668;52.012;8.724;2023-12-20T10:18:13;99672.41;;;8.11;100.00
11223;BME280;5668;52.012;8.724;2023-12-20T10:20:41;99674.03;;;8.12;100.00
11223;BME280;5668;52.012;8.724;2023-12-20T10:23:10;99675.69;;;8.13;100.00
11223;BME280;5668;52.012;8.724;2023-12-20T10:25:38;99666.28;;;8.12;100.00
11223;BME280;5668;52.012;8.724;2023-12-20T10:28:13;99681.59;;;8.15;100.00
11223;BME280;5668;52.012;8.724;2023-12-20T10:30:41;99662.44;;;8.18;100.00
11223;BME280;5668;52.012;8.724;2023-12-20T10:33:08;99656.44;;;8.18;100.00
11223;BME280;5668;52.012;8.724;2023-12-20T10:35:37;99664.91;;;8.20;100.00
11223;BME280;5668;52.012;8.724;2023-12-20T10:38:05;99671.53;;;8.24;100.00
11223;BME280;5668;52.012;8.724;2023-12-20T10:40:36;99671.75;;;8.21;100.00
11223;BME280;5668;52.012;8.724;2023-12-20T10:43:04;99659.41;;;8.24;100.00
11223;BME280;5668;52.012;8.724;2023-12-20T10:45:31;99668.84;;;8.25;100.00
11223;BME280;5668;52.012;8.724;2023-12-20T10:47:59;99663.03;;;8.22;100.00
11223;BME280;5668;52.012;8.724;2023-12-20T10:50:27;99667.63;;;8.18;100.00
11223;BME280;5668;52.012;8.724;2023-12-20T10:52:56;99666.56;;;8.21;100.00
11223;BME280;5668;52.012;8.724;2023-12-20T10:55:24;99662.22;;;8.21;100.00
11223;BME280;5668;52.012;8.724;2023-12-20T10:57:53;99656.84;;;8.24;100.00
11223;BME280;5668;52.012;8.724;2023-12-20T11:00:23;99671.53;;;8.24;100.00
11223;BME280;5668;52.012;8.724;2023-12-20T11:02:50;99667.28;;;8.23;100.00
11223;BME280;5668;52.012;8.724;2023-12-20T11:05:29;99672.25;;;8.26;100.00
11223;BME280;5668;52.012;8.724;2023-12-20T11:08:01;99670.72;;;8.23;100.00
11223;BME280;5668;52.012;8.724;2023-12-20T11:10:31;99675.06;;;8.23;100.00
11223;BME280;5668;52.012;8.724;2023-12-20T11:13:08;99662.84;;;8.25;100.00
11223;BME280;5668;52.012;8.724;2023-12-20T11:15:37;99657.44;;;8.28;100.00
11223;BME280;5668;52.012;8.724;2023-12-20T11:18:05;99661.91;;;8.26;100.00
11223;BME280;5668;52.012;8.724;2023-12-20T11:20:38;99667.69;;;8.29;100.00
11223;BME280;5668;52.012;8.724;2023-12-20T11:23:06;99660.84;;;8.28;100.00
11223;BME280;5668;52.012;8.724;2023-12-20T11:25:47;99654.84;;;8.28;100.00
11223;BME280;5668;52.012;8.724;2023-12-20T11:28:16;99647.31;;;8.25;100.00
11223;BME280;5668;52.012;8.724;2023-12-20T11:30:48;99640.28;;;8.27;100.00
11223;BME280;5668;52.012;8.724;2023-12-20T11:33:17;99654.16;;;8.26;100.00
11223;BME280;5668;52.012;8.724;2023-12-20T11:35:48;99652.47;;;8.25;100.00
11223;BME280;5668;52.012;8.724;2023-12-20T11:38:15;99636.03;;;8.26;100.00
11223;BME280;5668;52.012;8.724;2023-12-20T11:40:43;99628.25;;;8.26;100.00
11223;BME280;5668;52.012;8.724;2023-12-20T11:43:10;99622.84;;;8.29;100.00
11223;BME280;5668;52.012;8.724;2023-12-20T11:45:49;99622.84;;;8.29;100.00
11223;BME280;5668;52.012;8.724;2023-12-20T11:48:17;99612.31;;;8.32;100.00
11223;BME280;5668;52.012;8.724;2023-12-20T11:50:45;99620.91;;;8.32;100.00
11223;BME280;5668;52.012;8.724;2023-12-20T11:53:12;99620.81;;;8.34;100.00
11223;BME280;5668;52.012;8.724;2023-12-20T11:55:40;99615.19;;;8.40;100.00
11223;BME280;5668;52.012;8.724;2023-12-20T11:58:07;99614.34;;;8.39;100.00
11223;BME280;5668;52.012;8.724;2023-12-20T12:00:35;99607.53;;;8.38;100.00
11223;BME280;5668;52.012;8.724;2023-12-20T12:03:04;99601.50;;;8.38;100.00
11223;BME280;5668;52.012;8.724;2023-12-20T12:05:31;99601.50;;;8.38;100.00
11223;BME280;5668;52.012;8.724;2023-12-20T12:07:59;99600.09;;;8.34;100.00
11223;BME280;5668;52.012;8.724;2023-12-20T12:10:26;99604.22;;;8.36;100.00
11223;BME280;5668;52.012;8.724;2023-12-20T12:12:53;99596.34;;;8.38;100.00
11223;BME280;5668;52.012;8.724;2023-12-20T12:15:21;99597.28;;;8.37;100.00
11223;BME280;5668;52.012;8.724;2023-12-20T12:17:53;99591.50;;;8.33;100.00
11223;BME280;5668;52.012;8.724;2023-12-20T12:20:23;99586.19;;;8.35;100.00
11223;BME280;5668;52.012;8.724;2023-12-20T12:22:58;99588.25;;;8.30;100.00
11223;BME280;5668;52.012;8.724;2023-12-20T12:25:26;99600.31;;;8.31;100.00
11223;BME280;5668;52.012;8.724;2023-12-20T12:27:53;99620.09;;;8.32;100.00
11223;BME280;5668;52.012;8.724;2023-12-20T12:30:21;99613.72;;;8.36;100.00
11223;BME280;5668;52.012;8.724;2023-12-20T12:32:48;99602.56;;;8.35;100.00
11223;BME280;5668;52.012;8.724;2023-12-20T12:35:15;99602.34;;;8.38;100.00
11223;BME280;5668;52.012;8.724;2023-12-20T12:37:44;99597.16;;;8.38;100.00
11223;BME280;5668;52.012;8.724;2023-12-20T12:40:14;99596.34;;;8.38;100.00
11223;BME280;5668;52.012;8.724;2023-12-20T12:42:43;99591.53;;;8.44;100.00
11223;BME280;5668;52.012;8.724;2023-12-20T12:45:11;99584.59;;;8.45;100.00
11223;BME280;5668;52.012;8.724;2023-12-20T12:47:39;99581.19;;;8.44;100.00
11223;BME280;5668;52.012;8.724;2023-12-20T12:50:09;99586.97;;;8.48;100.00
11223;BME280;5668;52.012;8.724;2023-12-20T12:52:38;99576.38;;;8.51;100.00
11223;BME280;5668;52.012;8.724;2023-12-20T12:55:08;99574.50;;;8.53;100.00
11223;BME280;5668;52.012;8.724;2023-12-20T12:57:35;99572.84;;;8.52;100.00
11223;BME280;5668;52.012;8.724;2023-12-20T13:00:03;99574.50;;;8.53;100.00
11223;BME280;5668;52.012;8.724;2023-12-20T13:02:31;99579.69;;;8.53;100.00
11223;BME280;5668;52.012;8.724;2023-12-20T13:04:58;99571.91;;;8.53;100.00
11223;BME280;5668;52.012;8.724;2023-12-20T13:07:27;99578.75;;;8.54;100.00
11223;BME280;5668;52.012;8.724;2023-12-20T13:09:54;99573.69;;;8.52;100.00
11223;BME280;5668;52.012;8.724;2023-12-20T13:12:22;99583.00;;;8.55;100.00